Terminal Aerodrome Forecast
Issued by NWS

Home | Current Version | Previous Version | Text Only | Print | Product List | Glossary On
Versions: 1 2 3 4 5 6 7 8 9 10 11 12 13 14
812
FTUS41 KBGM 221133
TAFELM
TAF
KELM 221133Z 2212/2312 18005KT P6SM FEW200
     FM221800 18009KT P6SM BKN250
     FM230500 17009KT P6SM SCT250 WS020/19035KT=

USA.gov is the U.S. government's official web portal to all federal, state and local government web resources and services.